Terminal Aerodrome Forecast
Issued by NWS

Home | Current Version | Previous Version | Graphics & Text | Print | Product List | Glossary On
Versions: 1 2 3 4 5 6 7 8 9 10 11 12 13 14 15 16
005
FTUS43 KBIS 201721
TAFMOT
TAF
KMOT 201721Z 2018/2118 21016G24KT P6SM SKC
     FM210100 19009KT P6SM FEW100 SCT250
     FM210400 16008KT P6SM BKN150
     FM210700 17011KT P6SM BKN120 BKN200
     FM211200 22008KT P6SM VCSH BKN100
     FM211500 25005KT P6SM BKN100=

USA.gov is the U.S. government's official web portal to all federal, state and local government web resources and services.